Flight Track Log - Related Links

Times and Time Zones

All times are in EDT time to prevent confusion due to time zone crossing. See the CLH298 flight status page for this flight to view local times or setup timezone preferences in your user account.

Time Position Orientation Groundspeed Altitude Reporting Facility
EDT Latitude Longitude Course Direction KTS MPH feet Rate Location/Type
Wed 07:16:00 AM 49.2235 8.3825 187° South  Level Estimated
Wed 07:17:00 AM 49.1088 8.3599 187° South  Level Estimated
Wed 07:18:00 AM 48.9941 8.3375 187° South  Level Estimated
Wed 07:19:00 AM 48.8793 8.3152 187° South  Level Estimated
Wed 07:20:00 AM 48.7646 8.2930 187° South  Level Estimated
Wed 07:21:00 AM 48.6499 8.2708 187° South  Level Estimated
Wed 07:22:00 AM 48.5351 8.2488 187° South  Level Estimated
Wed 07:23:00 AM 48.4204 8.2269 187° South  Level Estimated
Wed 07:24:00 AM 48.3056 8.2051 187° South  Level Estimated
Wed 07:25:00 AM 48.1909 8.1834 187° South  Level Estimated
Wed 07:26:00 AM 48.0761 8.1617 187° South  Level Estimated
Wed 07:27:00 AM 47.9614 8.1402 187° South  Level Estimated
Wed 07:28:00 AM 47.8466 8.1188 187° South  Level Estimated
Wed 07:29:00 AM 47.7318 8.0975 187° South  Level Estimated
Wed 07:30:00 AM 47.6171 8.0762 187° South  Level Estimated
Wed 07:31:00 AM 47.5023 8.0551 187° South  Level Estimated
Wed 07:32:00 AM 47.3875 8.0340 187° South  Level Estimated
Wed 07:33:00 AM 47.2727 8.0131 187° South  Level Estimated
Wed 07:34:00 AM 47.1579 7.9922 187° South  Level Estimated
Wed 07:35:00 AM 47.0431 7.9714 187° South  Level Estimated
Wed 07:36:00 AM 46.9283 7.9507 187° South  Level Estimated
Wed 07:37:00 AM 46.8135 7.9301 187° South  Level Estimated
Wed 07:38:00 AM 46.6987 7.9096 187° South  Level Estimated
Wed 07:39:00 AM 46.5839 7.8891 187° South  Level Estimated
Wed 07:40:00 AM 46.4691 7.8688 187° South  Level Estimated
Wed 07:41:00 AM 46.3543 7.8485 187° South  Level Estimated
Wed 07:42:00 AM 46.2395 7.8284 187° South  Level Estimated
Wed 07:43:00 AM 46.1246 7.8083 187° South  Level Estimated
Wed 07:44:00 AM 46.0098 7.7883 187° South  Level Estimated
Wed 07:45:00 AM 45.8950 7.7684 187° South  Level Estimated
Wed 07:46:00 AM 45.7802 7.7485 187° South  Level Estimated
Wed 07:47:00 AM 45.6653 7.7288 187° South  Level Estimated
Wed 07:48:00 AM 45.5505 7.7091 187° South  Level Estimated
Wed 07:49:00 AM 45.4356 7.6895 187° South  Level Estimated
Wed 07:50:00 AM 45.3208 7.6700 187° South  Level Estimated
Wed 07:51:00 AM 45.2059 7.6505 187° South  Level Estimated
Wed 07:52:00 AM 45.2008 7.6496 187° South  Level Estimated
Wed 07:53:00 AM 45.2008 7.6496 35° Northeast  Level Estimated
Wed 07:54:00 AM 45.2008 7.6496 35° Northeast  Level Estimated
Wed 07:55:00 AM 45.2008 7.6496 35° Northeast  Level Estimated
Wed 07:56:00 AM 45.2008 7.6496 35° Northeast  Level Estimated
Wed 07:57:00 AM 45.2008 7.6496 35° Northeast  Level Estimated
Wed 07:58:00 AM 45.2008 7.6496 35° Northeast  Level Estimated
Wed 07:59:00 AM 45.2008 7.6496 35° Northeast  Level Estimated
Wed 08:00:00 AM 45.2008 7.6496 35° Northeast  Level Estimated
Wed 08:01:00 AM 45.2008 7.6496 35° Northeast  Level Estimated
Wed 08:02:00 AM 45.2008 7.6496 35° Northeast  Level Estimated
Wed 08:03:00 AM 45.2008 7.6496 35° Northeast  Level Estimated
Wed 08:04:00 AM 45.2008 7.6496 35° Northeast  Level Estimated
Wed 08:05:00 AM 45.2008 7.6496 35° Northeast  Level Estimated
Wed 08:06:00 AM 45.2008 7.6496 35° Northeast  Level Estimated
Wed 08:07:00 AM 45.2008 7.6496 35° Northeast  Level Estimated

Login

Don't have an account? Register now (free) for customized features, flight alerts, and more!